• Join FlightAware (Why Join?)
  • Login
  • US Flag 
05:31AM EDT


 

Airport Tracker/Info


-or-


 

Live Flight TrackerFlight Track Log ✈ KAP927 ✈ 17-May-2013 ✈ KBOS - KALB

Flight Track Log - Related Links

Times and Time Zones

All times are in EDT time to prevent confusion due to time zone crossing. See the KAP927 flight status page for this flight to view local times or setup timezone preferences in your user account.

Time Position Orientation Groundspeed Altitude Reporting Facility
EDT Latitude Longitude Course Direction KTS MPH feet Rate Location/Type
01:08PM 42.3833 -71.0000 251° West 99 114 500  Level KA90
01:09PM 42.3667 -71.0667 251° West 115 132 1,600 660 Climbing KA90
01:10PM 42.3500 -71.1167 246° West 124 143 2,400 600 Climbing KA90
01:11PM 42.3333 -71.1667 246° West 129 148 2,900 540 Climbing KA90
01:12PM 42.3333 -71.2000 270° West 131 151 3,500 600 Climbing KA90
01:13PM 42.3333 -71.2500 270° West 130 150 4,100 660 Climbing KA90
01:14PM 42.3333 -71.3000 270° West 125 144 4,900 660 Climbing KA90
01:15PM 42.3167 -71.3333 236° Southwest 127 146 5,400 600 Climbing KA90
01:16PM 42.3167 -71.4000 270° West 126 145 6,200 540 Climbing KA90
01:17PM 42.3167 -71.4500 270° West 126 145 6,700 480 Climbing KA90
01:18PM 42.3067 -71.4631 224° Southwest 127 146 6,900 480 Climbing Boston Center
01:19PM 42.3028 -71.4997 262° West 126 145 7,200 420 Climbing Boston Center
01:20PM 42.2969 -71.5503 261° West 126 145 7,700 300 Climbing Boston Center
01:21PM 42.2889 -71.5953 256° West 130 150 7,900 120 Climbing Boston Center
01:22PM 42.2831 -71.6486 262° West 144 166 8,000  Climbing Boston Center
01:23PM 42.2856 -71.7047 273° West 151 174 7,900  Descending Boston Center
01:24PM 42.2839 -71.7639 268° West 144 166 8,000  Climbing Boston Center
01:25PM 42.2842 -71.8200 270° West 141 162 8,000  Level Boston Center
01:26PM 42.2822 -71.8733 267° West 142 163 8,000  Level Boston Center
01:27PM 42.2844 -71.9208 274° West 140 161 8,000  Level Boston Center
01:28PM 42.2847 -71.9769 270° West 143 165 8,000  Level Boston Center
01:29PM 42.2975 -72.0275 289° West 142 163 8,000  Level Boston Center
01:30PM 42.3103 -72.0781 289° West 138 159 8,000  Level Boston Center
01:31PM 42.3208 -72.1311 285° West 140 161 8,000  Level Boston Center
01:32PM 42.3375 -72.1844 293° West 142 163 8,000  Level Boston Center
01:33PM 42.3481 -72.2378 285° West 145 167 8,000  Level Boston Center
01:34PM 42.3650 -72.2883 294° West 144 166 8,000  Level Boston Center
01:35PM 42.3794 -72.3389 291° West 144 166 8,000  Level Boston Center
01:36PM 42.3919 -72.3894 289° West 143 165 8,000  Level Boston Center
01:37PM 42.4067 -72.4428 291° West 141 162 8,000  Level Boston Center
01:38PM 42.4192 -72.4850 292° West 141 162 8,000  Level Boston Center
01:39PM 42.4317 -72.5386 288° West 141 162 8,000  Level Boston Center
01:40PM 42.4442 -72.5892 289° West 140 161 8,000  Level Boston Center
01:41PM 42.4544 -72.6400 285° West 141 162 8,000  Level Boston Center
01:42PM 42.4689 -72.6878 292° West 145 167 8,000  Level Boston Center
01:43PM 42.4814 -72.7414 288° West 145 167 8,000  Level Boston Center
01:44PM 42.4958 -72.7950 290° West 149 171 8,000 60 Level Boston Center
01:44PM 42.5019 -72.8175 290° West 147 169 8,100 60 Climbing Boston Center
01:45PM 42.5061 -72.8400 284° West 146 168 8,100  Level Boston Center
01:46PM 42.5203 -72.9050 286° West 150 173 8,100 -60 Level Boston Center
01:47PM 42.5347 -72.9586 290° West 151 174 8,000 -60 Descending Boston Center
01:48PM 42.5450 -72.9981 289° West 147 169 8,000  Level Boston Center
01:49PM 42.5592 -73.0603 287° West 151 174 8,000  Level Boston Center
01:50PM 42.5714 -73.1111 288° West 150 173 8,000  Level Boston Center
01:51PM 42.5878 -73.1619 294° West 146 168 8,000  Level Boston Center
01:52PM 42.6000 -73.2158 287° West 149 171 8,000  Level Boston Center
01:53PM 42.6142 -73.2722 289° West 151 174 8,000  Level Boston Center
01:54PM 42.6283 -73.3233 291° West 145 167 8,000 -420 Level Boston Center
01:55PM 42.6361 -73.3883 279° West 169 194 7,200 -900 Descending Boston Center
01:56PM 42.6503 -73.4478 288° West 171 197 6,200 -960 Descending Boston Center
01:57PM 42.6664 -73.5103 289° West 160 184 5,200 -900 Descending Boston Center
01:58PM 42.6783 -73.5611 288° West 157 181 4,500 -780 Descending Boston Center
01:59PM 42.6922 -73.6236 287° West 162 186 3,700 -900 Descending Boston Center
02:00PM 42.7061 -73.6861 287° West 172 198 2,800 -900 Descending Boston Center
02:01PM 42.7097 -73.7397 275° West 157 181 2,000 -780 Descending Boston Center
02:02PM 42.7114 -73.7908 273° West 124 143 1,300 -780 Descending Boston Center
02:03PM 42.7339 -73.8081 331° Northwest 88 101 500 -840 Descending Boston Center
02:05PM 42.7491 -73.8020 16° North  Level Estimated
02:12PM 42.7491 -73.8020 304° West  Level Estimated
02:13PM 42.7491 -73.8020 304° West  Level Estimated